Time;durP1;ratioP1;P1;durP2;ratioP2;P2;SDS_P1;SDS_P2;PMS_P1;PMS_P2;Temp;Humidity;BMP_temperature;BMP_pressure;BME280_temperature;BME280_humidity;BME280_pressure;Samples;Min_cycle;Max_cycle;Signal;HPM_P1;HPM_P2
2023/10/12 00:00:24;;;;;;;0.30;0.30;;;12.40;99.90;;;;;;5105354;28;20513;-75
2023/10/12 00:02:48;;;;;;;0.30;0.30;;;12.40;99.90;;;;;;5102415;28;20054;-75
2023/10/12 00:05:17;;;;;;;0.20;0.20;;;12.40;99.90;;;;;;5102521;28;20797;-75
2023/10/12 00:07:45;;;;;;;0.40;0.40;;;12.40;99.90;;;;;;5105588;28;20051;-76
2023/10/12 00:12:44;;;;;;;0.30;0.30;;;12.40;99.90;;;;;;5098791;28;20040;-76
2023/10/12 00:18:08;;;;;;;0.30;0.30;;;12.40;99.90;;;;;;5096088;28;20730;-76
2023/10/12 00:20:37;;;;;;;0.30;0.30;;;12.40;99.90;;;;;;5098033;28;20043;-76
2023/10/12 00:23:10;;;;;;;0.30;0.30;;;12.50;99.90;;;;;;5102687;28;20402;-74
2023/10/12 00:25:47;;;;;;;0.30;0.30;;;12.50;99.90;;;;;;5105885;28;20122;-76
2023/10/12 00:28:20;;;;;;;0.40;0.40;;;12.50;99.90;;;;;;5097299;28;20044;-76
2023/10/12 00:30:47;;;;;;;0.32;0.32;;;12.40;99.90;;;;;;5101411;28;20071;-76
2023/10/12 00:33:13;;;;;;;0.30;0.30;;;12.40;99.90;;;;;;5087116;28;20055;-76
2023/10/12 00:35:39;;;;;;;0.40;0.40;;;12.40;99.90;;;;;;5116262;27;20043;-75
2023/10/12 00:38:18;;;;;;;0.30;0.30;;;12.40;99.90;;;;;;5095706;28;20486;-76
2023/10/12 00:40:57;;;;;;;0.20;0.20;;;12.40;99.90;;;;;;5096075;28;20409;-76
2023/10/12 00:43:31;;;;;;;0.30;0.30;;;12.40;99.90;;;;;;5097273;28;20055;-76
2023/10/12 00:45:57;;;;;;;0.20;0.20;;;12.40;99.90;;;;;;5097304;28;20047;-76
2023/10/12 00:48:29;;;;;;;0.30;0.30;;;12.40;99.90;;;;;;5096560;28;20036;-75
2023/10/12 00:50:56;;;;;;;0.30;0.30;;;12.40;99.90;;;;;;5100806;28;20047;-76
2023/10/12 00:53:31;;;;;;;0.30;0.30;;;12.40;99.90;;;;;;5102246;28;20370;-76
2023/10/12 00:55:57;;;;;;;0.20;0.20;;;12.30;99.90;;;;;;5101975;28;20178;-75
2023/10/12 00:58:23;;;;;;;0.30;0.30;;;12.30;99.90;;;;;;5102520;27;20126;-76
2023/10/12 01:00:51;;;;;;;;;;;12.30;99.90;;;;;;5103185;27;20051;-76
2023/10/12 01:08:35;;;;;;;0.30;0.30;;;12.30;99.90;;;;;;5107588;27;20490;-75
2023/10/12 01:11:05;;;;;;;;;;;12.30;99.90;;;;;;5101995;28;20145;-75
2023/10/12 01:13:34;;;;;;;0.30;0.30;;;12.30;99.90;;;;;;5113785;27;19923;-76
2023/10/12 01:16:22;;;;;;;0.30;0.30;;;12.20;99.90;;;;;;5093048;28;20081;-75
2023/10/12 01:18:50;;;;;;;;;;;12.20;99.90;;;;;;5103573;27;20133;-76
2023/10/12 01:21:16;;;;;;;0.30;0.30;;;12.20;99.90;;;;;;5114154;27;20582;-76
2023/10/12 01:23:50;;;;;;;0.30;0.30;;;12.20;99.90;;;;;;5087790;28;20044;-76
2023/10/12 01:26:16;;;;;;;0.30;0.30;;;12.10;99.90;;;;;;5103034;28;20058;-76
2023/10/12 01:28:45;;;;;;;0.40;0.40;;;12.10;99.90;;;;;;5101430;28;20512;-76
2023/10/12 01:31:11;;;;;;;0.38;0.38;;;12.10;99.90;;;;;;5103581;27;20080;-76
2023/10/12 01:33:41;;;;;;;0.30;0.30;;;12.00;99.90;;;;;;5105799;28;20497;-75
2023/10/12 01:36:07;;;;;;;0.40;0.40;;;12.00;99.90;;;;;;5100925;27;20062;-75
2023/10/12 01:38:37;;;;;;;0.32;0.32;;;11.90;99.90;;;;;;5099133;27;20048;-76
2023/10/12 01:41:09;;;;;;;0.40;0.40;;;11.90;99.90;;;;;;5081900;28;20059;-76
2023/10/12 01:43:36;;;;;;;0.50;0.50;;;11.80;99.90;;;;;;5097347;28;20109;-76
2023/10/12 01:46:08;;;;;;;0.30;0.30;;;11.80;99.90;;;;;;5101088;28;20063;-75
2023/10/12 01:48:34;;;;;;;0.40;0.40;;;11.80;99.90;;;;;;5101103;28;20134;-75
2023/10/12 01:51:16;;;;;;;;;;;11.80;99.90;;;;;;5101943;27;20044;-74
2023/10/12 01:53:42;;;;;;;0.30;0.30;;;11.80;99.90;;;;;;5123398;27;19969;-76
2023/10/12 01:56:11;;;;;;;0.30;0.30;;;11.80;99.90;;;;;;5103036;27;20048;-75
2023/10/12 01:58:40;;;;;;;0.30;0.30;;;11.70;99.90;;;;;;5104539;27;20495;-76
2023/10/12 02:01:07;;;;;;;0.30;0.30;;;11.70;99.90;;;;;;5103257;28;20123;-75
2023/10/12 02:03:37;;;;;;;0.30;0.30;;;11.70;99.90;;;;;;5098949;27;20188;-76
2023/10/12 02:06:05;;;;;;;0.30;0.30;;;11.60;99.90;;;;;;5106630;28;20079;-76
2023/10/12 02:08:33;;;;;;;0.30;0.30;;;11.60;99.90;;;;;;5099967;28;20136;-76
2023/10/12 02:13:50;;;;;;;0.32;0.32;;;11.60;99.90;;;;;;5102978;28;20055;-76
2023/10/12 02:16:24;;;;;;;0.30;0.30;;;11.60;99.90;;;;;;5104131;27;20382;-76
2023/10/12 02:18:53;;;;;;;0.20;0.20;;;11.60;99.90;;;;;;5101529;27;20047;-76
2023/10/12 02:21:25;;;;;;;0.30;0.30;;;11.50;99.90;;;;;;5099425;28;20055;-76
2023/10/12 02:29:11;;;;;;;0.30;0.30;;;11.40;99.90;;;;;;5104339;27;20059;-75
2023/10/12 02:34:21;;;;;;;0.30;0.30;;;11.40;99.90;;;;;;5099683;28;20502;-76
2023/10/12 02:39:47;;;;;;;0.30;0.30;;;11.40;99.90;;;;;;5100082;28;20398;-75
2023/10/12 02:47:22;;;;;;;0.30;0.30;;;11.30;99.90;;;;;;5097275;27;20060;-75
2023/10/12 02:49:48;;;;;;;0.30;0.30;;;11.30;99.90;;;;;;5086192;28;20063;-75
2023/10/12 02:52:15;;;;;;;0.30;0.30;;;11.20;99.90;;;;;;5083351;28;20043;-75
2023/10/12 02:54:52;;;;;;;0.30;0.30;;;11.20;99.90;;;;;;5098944;27;20054;-76
2023/10/12 02:57:23;;;;;;;;;;;11.20;99.90;;;;;;5093141;27;20073;-76
2023/10/12 03:00:08;;;;;;;0.30;0.30;;;11.20;99.90;;;;;;5106142;27;19920;-75
2023/10/12 03:02:34;;;;;;;0.30;0.30;;;11.10;99.90;;;;;;5102262;28;20126;-76
2023/10/12 03:05:06;;;;;;;0.30;0.30;;;11.10;99.90;;;;;;5088186;28;20047;-75
2023/10/12 03:07:35;;;;;;;0.30;0.30;;;11.10;99.90;;;;;;5088607;28;20055;-76
2023/10/12 03:10:06;;;;;;;0.30;0.30;;;11.10;99.90;;;;;;5100542;27;20118;-75
2023/10/12 03:12:35;;;;;;;0.28;0.28;;;11.10;99.90;;;;;;5098753;28;20132;-75
2023/10/12 03:15:12;;;;;;;0.30;0.30;;;11.10;99.90;;;;;;5079114;28;20052;-76
2023/10/12 03:17:42;;;;;;;;;;;11.00;99.90;;;;;;5105946;28;20044;-75
2023/10/12 03:20:52;;;;;;;0.40;0.40;;;11.00;99.90;;;;;;5102142;28;20285;-76
2023/10/12 03:23:12;;;;;;;0.50;0.50;;;11.00;99.90;;;;;;5098050;27;20081;-75
2023/10/12 03:25:43;;;;;;;0.30;0.30;;;11.00;99.90;;;;;;5099624;28;20059;-76
2023/10/12 03:28:16;;;;;;;0.30;0.30;;;11.00;99.90;;;;;;5084477;28;20043;-76
2023/10/12 03:30:53;;;;;;;0.30;0.30;;;11.00;99.90;;;;;;5101842;27;20066;-75
2023/10/12 03:33:19;;;;;;;0.40;0.40;;;11.00;99.90;;;;;;5101684;27;20074;-74
2023/10/12 03:35:57;;;;;;;0.40;0.40;;;10.90;99.90;;;;;;5103007;28;20552;-75
2023/10/12 03:38:25;;;;;;;0.40;0.40;;;11.00;99.90;;;;;;5100871;27;20108;-75
2023/10/12 03:41:45;;;;;;;0.38;0.38;;;11.00;99.90;;;;;;5074412;28;20584;-75
2023/10/12 03:43:40;;;;;;;0.30;0.30;;;10.90;99.90;;;;;;5063060;28;20082;-75
2023/10/12 03:53:56;;;;;;;0.30;0.30;;;10.90;99.90;;;;;;5059563;28;20045;-75
2023/10/12 03:56:23;;;;;;;0.40;0.40;;;10.90;99.90;;;;;;5051283;28;20763;-75
2023/10/12 03:58:58;;;;;;;0.35;0.35;;;10.80;99.90;;;;;;5060229;28;20051;-74
2023/10/12 04:01:41;;;;;;;0.30;0.30;;;10.80;99.90;;;;;;5062319;28;20049;-75
2023/10/12 04:04:21;;;;;;;0.28;0.28;;;10.80;99.90;;;;;;5060114;28;20121;-74
2023/10/12 04:09:42;;;;;;;0.30;0.30;;;10.80;99.90;;;;;;5060368;28;20174;-75
2023/10/12 04:14:59;;;;;;;0.40;0.40;;;10.70;99.90;;;;;;5036874;28;20059;-75
2023/10/12 04:25:22;;;;;;;0.70;0.70;;;10.60;99.90;;;;;;5058254;28;20052;-75
2023/10/12 04:27:51;;;;;;;0.40;0.40;;;10.60;99.90;;;;;;5060391;28;20044;-75
2023/10/12 04:30:22;;;;;;;0.38;0.38;;;10.60;99.90;;;;;;5064368;28;20040;-75
2023/10/12 04:35:26;;;;;;;0.40;0.40;;;10.60;99.90;;;;;;5066791;28;20060;-75
2023/10/12 04:37:51;;;;;;;0.30;0.30;;;10.50;99.90;;;;;;5069476;28;20086;-74
2023/10/12 04:40:33;;;;;;;0.40;0.40;;;10.50;99.90;;;;;;5070108;28;20048;-74
2023/10/12 04:43:05;;;;;;;0.40;0.40;;;10.50;99.90;;;;;;5106796;27;20056;-75
2023/10/12 04:45:53;;;;;;;0.30;0.30;;;10.50;99.90;;;;;;5101597;27;20127;-75
2023/10/12 04:48:18;;;;;;;0.30;0.30;;;10.50;99.90;;;;;;5103778;28;20047;-75
2023/10/12 04:50:44;;;;;;;0.55;0.55;;;10.40;99.90;;;;;;5104791;28;20038;-75
2023/10/12 04:53:12;;;;;;;0.30;0.30;;;10.40;99.90;;;;;;5103276;27;20878;-75
2023/10/12 04:55:41;;;;;;;0.35;0.35;;;10.40;99.90;;;;;;5102706;27;20056;-75
2023/10/12 04:58:17;;;;;;;0.30;0.30;;;10.40;99.90;;;;;;5112786;27;20047;-75
2023/10/12 05:00:48;;;;;;;0.40;0.40;;;10.40;99.90;;;;;;5100453;28;20200;-75
2023/10/12 05:03:34;;;;;;;0.30;0.30;;;10.40;99.90;;;;;;5099265;28;20126;-75
2023/10/12 05:06:08;;;;;;;0.40;0.40;;;10.30;99.90;;;;;;5099852;27;20047;-75
2023/10/12 05:08:35;;;;;;;0.30;0.30;;;10.30;99.90;;;;;;5104322;27;20473;-75
2023/10/12 05:11:02;;;;;;;0.40;0.40;;;10.30;99.90;;;;;;5103160;28;20139;-75
2023/10/12 05:13:28;;;;;;;0.30;0.30;;;10.30;99.90;;;;;;5100515;27;20043;-75
2023/10/12 05:16:04;;;;;;;0.40;0.40;;;10.20;99.90;;;;;;5105485;27;20108;-75
2023/10/12 05:18:31;;;;;;;0.30;0.30;;;10.20;99.90;;;;;;5099337;27;20107;-75
2023/10/12 05:20:58;;;;;;;0.47;0.47;;;10.20;99.90;;;;;;5107279;28;20059;-75
2023/10/12 05:23:23;;;;;;;0.40;0.40;;;10.10;99.90;;;;;;5105299;27;20432;-75
2023/10/12 05:28:27;;;;;;;0.40;0.40;;;10.00;99.90;;;;;;5103826;27;20058;-75
2023/10/12 05:30:59;;;;;;;0.40;0.40;;;10.00;99.90;;;;;;5102626;28;20039;-75
2023/10/12 05:34:00;;;;;;;0.30;0.30;;;9.90;99.90;;;;;;5101671;28;20482;-75
2023/10/12 05:36:14;;;;;;;0.43;0.43;;;9.90;99.90;;;;;;5105151;28;20050;-75
2023/10/12 05:38:50;;;;;;;;;;;9.90;99.90;;;;;;5106827;27;20131;-75
2023/10/12 05:41:21;;;;;;;0.55;0.55;;;9.80;99.90;;;;;;5101025;27;19920;-74
2023/10/12 05:43:47;;;;;;;0.35;0.35;;;9.70;99.90;;;;;;5102494;28;20070;-75
2023/10/12 05:46:16;;;;;;;0.40;0.40;;;9.60;99.90;;;;;;5098511;28;20184;-75
2023/10/12 05:48:46;;;;;;;0.45;0.45;;;9.60;99.90;;;;;;5098496;28;20071;-75
2023/10/12 05:51:21;;;;;;;0.57;0.57;;;9.60;99.90;;;;;;5085053;28;20085;-75
2023/10/12 05:53:48;;;;;;;0.50;0.50;;;9.50;99.90;;;;;;5102870;27;20934;-75
2023/10/12 05:56:17;;;;;;;0.30;0.30;;;9.50;99.90;;;;;;5093704;28;20383;-75
2023/10/12 05:58:43;;;;;;;0.40;0.40;;;9.50;99.90;;;;;;5102651;27;20040;-75
2023/10/12 06:01:10;;;;;;;0.40;0.40;;;9.40;99.90;;;;;;5101588;27;20048;-75
2023/10/12 06:03:46;;;;;;;;;;;9.40;99.90;;;;;;5094681;28;20052;-75
2023/10/12 06:06:12;;;;;;;0.40;0.40;;;9.30;99.90;;;;;;5100241;27;19955;-75
2023/10/12 06:08:40;;;;;;;0.50;0.50;;;9.30;99.90;;;;;;5099626;27;20036;-75
2023/10/12 06:11:10;;;;;;;0.50;0.50;;;9.30;99.90;;;;;;5103959;28;20070;-75
2023/10/12 06:13:42;;;;;;;0.50;0.50;;;9.20;99.90;;;;;;5102019;28;20520;-75
2023/10/12 06:16:19;;;;;;;0.52;0.52;;;9.30;99.90;;;;;;5091905;27;20058;-75
2023/10/12 06:18:45;;;;;;;;;;;9.20;99.90;;;;;;5100932;27;20134;-75
2023/10/12 06:21:19;;;;;;;0.40;0.40;;;9.20;99.90;;;;;;5106530;28;20007;-75
2023/10/12 06:23:50;;;;;;;0.40;0.40;;;9.20;99.90;;;;;;5106247;27;20051;-75
2023/10/12 06:26:28;;;;;;;0.55;0.55;;;9.20;99.90;;;;;;5103790;27;20059;-75
2023/10/12 06:29:00;;;;;;;0.38;0.38;;;9.30;99.90;;;;;;5107097;27;20112;-75
2023/10/12 06:31:30;;;;;;;0.40;0.40;;;9.30;99.90;;;;;;5106947;27;20084;-75
2023/10/12 06:33:59;;;;;;;0.50;0.50;;;9.30;99.90;;;;;;5107066;27;20062;-74
2023/10/12 06:36:37;;;;;;;0.40;0.40;;;9.30;99.90;;;;;;5108764;28;20122;-76
2023/10/12 06:44:28;;;;;;;0.50;0.50;;;9.30;99.90;;;;;;5125863;27;20069;-75
2023/10/12 06:46:57;;;;;;;0.50;0.50;;;9.20;99.90;;;;;;5088335;28;20088;-75
2023/10/12 06:49:24;;;;;;;0.40;0.40;;;9.30;99.90;;;;;;5107137;28;20481;-75
2023/10/12 06:52:02;;;;;;;0.52;0.52;;;9.30;99.90;;;;;;5089150;28;20101;-75
2023/10/12 06:59:59;;;;;;;0.43;0.43;;;9.30;99.90;;;;;;5107732;28;20126;-75
2023/10/12 07:02:29;;;;;;;0.40;0.40;;;9.40;99.90;;;;;;5090047;28;20044;-75
2023/10/12 07:05:01;;;;;;;0.40;0.40;;;9.40;99.90;;;;;;5106158;27;20044;-75
2023/10/12 07:07:36;;;;;;;0.47;0.47;;;9.50;99.90;;;;;;5106764;28;20043;-75
2023/10/12 07:12:57;;;;;;;0.45;0.45;;;9.60;99.90;;;;;;5107969;27;20058;-75
2023/10/12 07:15:23;;;;;;;0.50;0.50;;;9.60;99.90;;;;;;5107392;28;20043;-75
2023/10/12 07:17:50;;;;;;;0.35;0.35;;;9.70;99.90;;;;;;5102847;28;20040;-74
2023/10/12 07:23:14;;;;;;;0.50;0.50;;;9.90;99.90;;;;;;5107064;27;20143;-75
2023/10/12 07:25:43;;;;;;;0.30;0.30;;;10.00;99.90;;;;;;5105052;27;20432;-74
2023/10/12 07:28:18;;;;;;;0.30;0.30;;;10.10;99.90;;;;;;5107349;27;20213;-75
2023/10/12 07:31:02;;;;;;;0.38;0.38;;;10.30;99.90;;;;;;5106757;28;20043;-74
2023/10/12 07:33:30;;;;;;;0.20;0.20;;;10.40;99.90;;;;;;5106240;28;20808;-74
2023/10/12 07:35:56;;;;;;;0.35;0.35;;;10.50;99.90;;;;;;5107930;28;20046;-75
2023/10/12 07:38:34;;;;;;;0.40;0.40;;;10.60;99.90;;;;;;5091720;28;20046;-74
2023/10/12 07:41:01;;;;;;;0.30;0.30;;;10.70;99.90;;;;;;5104207;27;20553;-74
2023/10/12 07:43:31;;;;;;;;;;;10.80;99.90;;;;;;5106899;27;20405;-75
2023/10/12 07:48:47;;;;;;;0.68;0.68;;;11.10;99.90;;;;;;5104801;28;20528;-74
2023/10/12 07:51:25;;;;;;;0.40;0.40;;;11.20;99.90;;;;;;5088372;28;20075;-75
2023/10/12 07:54:00;;;;;;;0.32;0.32;;;11.20;99.90;;;;;;5103139;28;20048;-74
2023/10/12 07:56:33;;;;;;;0.35;0.35;;;11.30;99.90;;;;;;5106459;28;20665;-74
2023/10/12 07:59:00;;;;;;;0.35;0.35;;;11.40;99.90;;;;;;5105859;28;20047;-75
2023/10/12 08:03:58;;;;;;;0.30;0.30;;;11.40;99.90;;;;;;5106539;28;20063;-75
2023/10/12 08:06:36;;;;;;;0.50;0.50;;;11.50;99.90;;;;;;5105873;28;20420;-75
2023/10/12 08:09:05;;;;;;;0.40;0.40;;;11.50;99.90;;;;;;5106001;28;20112;-74
2023/10/12 08:11:32;;;;;;;0.30;0.30;;;11.60;99.90;;;;;;5106224;28;20387;-74
2023/10/12 08:14:09;;;;;;;0.40;0.40;;;11.60;99.90;;;;;;5107643;28;20549;-74
2023/10/12 08:16:40;;;;;;;0.32;0.32;;;11.60;99.90;;;;;;5105548;28;20374;-75
2023/10/12 08:21:38;;;;;;;0.45;0.45;;;11.80;99.90;;;;;;5126355;27;20075;-75
2023/10/12 08:32:03;;;;;;;0.40;0.40;;;12.10;99.90;;;;;;5102098;28;20040;-74
2023/10/12 08:39:39;;;;;;;0.20;0.20;;;12.40;99.90;;;;;;5107654;28;20055;-75
2023/10/12 08:44:54;;;;;;;0.20;0.20;;;12.40;99.90;;;;;;5103498;28;20051;-74
2023/10/12 08:52:28;;;;;;;0.20;0.20;;;12.50;99.90;;;;;;5109136;28;20053;-74
2023/10/12 08:55:10;;;;;;;0.38;0.38;;;12.60;99.90;;;;;;5106575;28;20043;-74
2023/10/12 08:58:01;;;;;;;0.30;0.30;;;12.50;99.90;;;;;;5104505;28;20051;-74
2023/10/12 09:03:37;;;;;;;0.32;0.32;;;12.60;99.90;;;;;;5103940;28;20494;-74
2023/10/12 09:05:59;;;;;;;0.20;0.20;;;12.60;99.90;;;;;;5104128;28;20080;-74
2023/10/12 09:11:13;;;;;;;0.30;0.30;;;12.70;99.90;;;;;;5106490;28;20054;-75
2023/10/12 09:13:45;;;;;;;1.08;1.08;;;12.70;99.90;;;;;;5106298;28;20505;-74
2023/10/12 09:16:14;;;;;;;0.25;0.25;;;12.80;99.90;;;;;;5108335;28;20079;-74
2023/10/12 09:18:47;;;;;;;0.30;0.30;;;12.80;99.90;;;;;;5110680;28;20048;-75
2023/10/12 09:24:21;;;;;;;0.20;0.20;;;13.00;99.90;;;;;;5111812;27;20067;-74
2023/10/12 09:26:57;;;;;;;0.30;0.30;;;13.10;99.90;;;;;;5109261;27;20079;-74
2023/10/12 09:29:27;;;;;;;0.30;0.30;;;13.20;99.90;;;;;;5109826;28;20063;-74
2023/10/12 09:34:43;;;;;;;0.30;0.30;;;13.40;99.90;;;;;;5102452;28;20048;-74
2023/10/12 09:37:16;;;;;;;0.88;0.88;;;13.50;99.90;;;;;;5099919;28;20051;-73
2023/10/12 09:39:45;;;;;;;1.13;1.10;;;13.50;99.90;;;;;;5108462;28;20047;-74
2023/10/12 09:42:22;;;;;;;0.47;0.47;;;13.60;99.90;;;;;;5103872;28;20067;-74
2023/10/12 09:45:11;;;;;;;0.30;0.30;;;13.60;99.90;;;;;;5091325;28;20486;-74
2023/10/12 09:47:44;;;;;;;1.70;1.70;;;13.60;99.90;;;;;;5108692;28;20393;-74
2023/10/12 09:50:13;;;;;;;0.32;0.32;;;13.60;99.90;;;;;;5109515;28;20047;-74
2023/10/12 09:52:46;;;;;;;0.30;0.30;;;13.60;99.90;;;;;;5109451;28;20115;-73
2023/10/12 09:55:23;;;;;;;0.20;0.20;;;13.60;99.90;;;;;;5109002;27;20044;-74
2023/10/12 09:57:50;;;;;;;0.30;0.30;;;13.60;99.90;;;;;;5094106;28;20682;-74
2023/10/12 10:00:55;;;;;;;0.30;0.30;;;13.60;99.90;;;;;;5108220;28;20044;-73
2023/10/12 10:03:17;;;;;;;0.30;0.30;;;13.60;99.90;;;;;;5105836;27;20050;-74
2023/10/12 10:05:51;;;;;;;0.30;0.30;;;13.70;99.90;;;;;;5105062;28;20113;-74
2023/10/12 10:08:18;;;;;;;0.30;0.30;;;13.80;99.90;;;;;;5108758;27;20075;-74
2023/10/12 10:10:45;;;;;;;0.30;0.30;;;13.80;99.90;;;;;;5107524;28;20035;-74
2023/10/12 10:13:46;;;;;;;0.20;0.20;;;13.80;99.90;;;;;;5106809;27;20438;-73
2023/10/12 10:16:18;;;;;;;0.47;0.30;;;13.90;99.90;;;;;;5104508;27;20052;-73
2023/10/12 10:19:10;;;;;;;0.50;0.50;;;13.80;99.90;;;;;;5106059;28;20047;-74
2023/10/12 10:21:38;;;;;;;0.30;0.30;;;13.70;99.90;;;;;;5105987;28;20047;-74
2023/10/12 10:24:12;;;;;;;0.30;0.30;;;13.70;99.90;;;;;;5103696;28;20051;-74
2023/10/12 10:26:39;;;;;;;0.30;0.30;;;13.70;99.90;;;;;;5104302;27;20505;-73
2023/10/12 10:29:05;;;;;;;0.40;0.40;;;13.80;99.90;;;;;;5105513;27;20810;-73
2023/10/12 10:31:35;;;;;;;0.30;0.30;;;14.00;99.90;;;;;;5105917;28;20143;-74
2023/10/12 10:34:07;;;;;;;0.30;0.30;;;14.10;99.90;;;;;;5089017;28;20132;-74
2023/10/12 10:36:34;;;;;;;0.47;0.47;;;14.30;99.90;;;;;;5104480;28;20767;-74
2023/10/12 10:41:46;;;;;;;0.20;0.20;;;14.40;99.90;;;;;;5102539;27;20062;-73
2023/10/12 10:44:16;;;;;;;0.20;0.20;;;14.50;99.90;;;;;;5103771;28;20452;-74
2023/10/12 10:46:46;;;;;;;0.22;0.22;;;14.60;99.90;;;;;;5103162;28;20812;-74
2023/10/12 10:49:16;;;;;;;0.35;0.30;;;14.60;99.90;;;;;;5101113;27;20040;-73
2023/10/12 10:54:33;;;;;;;0.25;0.25;;;14.80;99.90;;;;;;5104826;27;20058;-74
2023/10/12 10:56:59;;;;;;;0.20;0.20;;;14.80;99.90;;;;;;5104524;28;20112;-74
2023/10/12 10:59:26;;;;;;;0.15;0.15;;;14.80;99.90;;;;;;5102988;27;20047;-73
2023/10/12 11:01:52;;;;;;;0.20;0.20;;;14.90;99.90;;;;;;5102713;28;20047;-74
2023/10/12 11:07:03;;;;;;;0.10;0.10;;;14.90;99.90;;;;;;5097806;28;20075;-73
2023/10/12 11:10:03;;;;;;;0.30;0.30;;;14.90;99.90;;;;;;5100720;27;20086;-73
2023/10/12 11:12:21;;;;;;;0.20;0.20;;;14.80;99.90;;;;;;5098141;27;20094;-73
2023/10/12 11:15:09;;;;;;;0.32;0.32;;;14.80;99.90;;;;;;5101351;28;20403;-73
2023/10/12 11:18:29;;;;;;;;;;;14.90;99.90;;;;;;5102384;28;20126;-73
2023/10/12 11:20:40;;;;;;;0.30;0.30;;;14.90;99.90;;;;;;5077706;28;20035;-73
2023/10/12 11:23:08;;;;;;;;;;;15.00;99.90;;;;;;5088304;28;20061;-73
2023/10/12 11:25:39;;;;;;;0.20;0.20;;;15.00;99.90;;;;;;5084734;28;19988;-73
2023/10/12 11:28:23;;;;;;;0.20;0.20;;;14.90;99.90;;;;;;5107307;27;20136;-73
2023/10/12 11:30:52;;;;;;;0.30;0.30;;;14.80;99.90;;;;;;5105349;28;20110;-72
2023/10/12 11:33:29;;;;;;;0.20;0.20;;;14.80;99.90;;;;;;5086994;28;20056;-74
2023/10/12 11:36:00;;;;;;;0.20;0.20;;;14.80;99.90;;;;;;5105751;28;20043;-73
2023/10/12 11:38:27;;;;;;;0.20;0.20;;;14.80;99.90;;;;;;5103148;28;20074;-73
2023/10/12 11:40:55;;;;;;;0.30;0.30;;;14.90;99.90;;;;;;5107609;28;20067;-73
2023/10/12 11:43:30;;;;;;;0.30;0.30;;;15.00;99.90;;;;;;5106922;28;20071;-74
2023/10/12 11:46:01;;;;;;;0.28;0.28;;;15.10;99.90;;;;;;5108609;28;20051;-73
2023/10/12 11:48:28;;;;;;;0.30;0.30;;;15.20;99.90;;;;;;5104618;28;20043;-72
2023/10/12 11:50:54;;;;;;;0.28;0.28;;;15.30;99.90;;;;;;5107997;28;20047;-72
2023/10/12 11:53:20;;;;;;;0.20;0.20;;;15.50;99.90;;;;;;5107589;28;20391;-72
2023/10/12 11:55:49;;;;;;;0.73;0.73;;;15.60;99.90;;;;;;5108367;28;20069;-73
2023/10/12 11:58:19;;;;;;;0.20;0.20;;;15.70;99.90;;;;;;5110111;27;20039;-74
2023/10/12 12:00:48;;;;;;;0.20;0.20;;;15.70;99.90;;;;;;5107683;28;20039;-73
2023/10/12 12:03:15;;;;;;;0.40;0.40;;;15.70;99.90;;;;;;5106896;28;20467;-73
2023/10/12 12:05:42;;;;;;;0.30;0.30;;;15.90;99.90;;;;;;5106234;28;20425;-73
2023/10/12 12:08:13;;;;;;;0.25;0.25;;;16.00;99.90;;;;;;5110560;28;20721;-74
2023/10/12 12:10:54;;;;;;;0.25;0.25;;;16.10;99.90;;;;;;5105349;28;20043;-72
2023/10/12 12:13:20;;;;;;;0.20;0.20;;;16.10;99.90;;;;;;5106317;28;20048;-73
2023/10/12 12:15:47;;;;;;;0.20;0.20;;;16.10;99.90;;;;;;5091888;28;20043;-73
2023/10/12 12:18:21;;;;;;;0.20;0.20;;;16.00;99.90;;;;;;5104157;28;20749;-73
2023/10/12 12:20:58;;;;;;;0.20;0.20;;;15.90;99.90;;;;;;5104735;28;20050;-73
2023/10/12 12:23:27;;;;;;;;;;;15.80;99.90;;;;;;5107343;28;20328;-73
2023/10/12 12:26:07;;;;;;;0.20;0.20;;;15.90;99.90;;;;;;5105964;28;19927;-73
2023/10/12 12:28:33;;;;;;;0.25;0.25;;;15.80;99.90;;;;;;5108811;28;20044;-73
2023/10/12 12:31:04;;;;;;;;;;;15.90;99.90;;;;;;5108733;28;20051;-72
2023/10/12 12:33:30;;;;;;;0.20;0.20;;;15.90;99.90;;;;;;5106101;28;19919;-72
2023/10/12 12:36:10;;;;;;;0.20;0.20;;;16.00;99.90;;;;;;5106966;28;20504;-72
2023/10/12 12:41:05;;;;;;;0.20;0.20;;;15.90;99.90;;;;;;5104380;28;20047;-73
2023/10/12 12:43:35;;;;;;;0.20;0.20;;;15.90;99.90;;;;;;5106238;28;20066;-72
2023/10/12 12:46:01;;;;;;;0.20;0.20;;;16.00;99.90;;;;;;5106596;28;20545;-73
2023/10/12 12:48:26;;;;;;;0.20;0.20;;;15.90;99.90;;;;;;5105822;28;20047;-72
2023/10/12 12:50:52;;;;;;;;;;;16.00;99.90;;;;;;5110727;28;20085;-72
2023/10/12 12:53:20;;;;;;;0.30;0.30;;;16.10;99.90;;;;;;5127542;27;19948;-72
2023/10/12 12:55:46;;;;;;;0.15;0.15;;;16.10;99.90;;;;;;5111182;28;20468;-72
2023/10/12 12:58:17;;;;;;;0.17;0.17;;;16.10;99.90;;;;;;5113423;27;20073;-71
2023/10/12 13:00:46;;;;;;;0.20;0.20;;;16.20;99.90;;;;;;5109655;28;20046;-73
2023/10/12 13:03:13;;;;;;;0.30;0.30;;;16.20;99.90;;;;;;5109011;28;20043;-73
2023/10/12 13:05:39;;;;;;;0.20;0.20;;;16.10;99.90;;;;;;5112327;27;20042;-73
2023/10/12 13:08:07;;;;;;;0.20;0.20;;;16.10;99.90;;;;;;5128665;27;20044;-73
2023/10/12 13:10:35;;;;;;;0.20;0.20;;;16.10;99.90;;;;;;5110115;27;20048;-73
2023/10/12 13:13:01;;;;;;;0.20;0.20;;;16.10;99.90;;;;;;5109834;28;20051;-73
2023/10/12 13:15:26;;;;;;;;;;;16.10;99.90;;;;;;5110857;28;20465;-73
2023/10/12 13:17:52;;;;;;;0.10;0.10;;;16.10;99.90;;;;;;5105727;28;19935;-73
2023/10/12 13:20:21;;;;;;;0.20;0.20;;;16.10;99.90;;;;;;5110784;28;20031;-73
2023/10/12 13:22:48;;;;;;;0.20;0.20;;;16.00;99.90;;;;;;5110220;27;20140;-73
2023/10/12 13:25:20;;;;;;;0.20;0.20;;;16.00;99.90;;;;;;5109522;27;20460;-73
2023/10/12 13:27:49;;;;;;;0.20;0.20;;;15.90;99.90;;;;;;5110003;28;20043;-73
2023/10/12 13:30:15;;;;;;;0.20;0.20;;;15.90;99.90;;;;;;5109980;28;20486;-73
2023/10/12 13:32:50;;;;;;;0.20;0.20;;;15.90;99.90;;;;;;5092771;28;20043;-73
2023/10/12 13:35:31;;;;;;;0.30;0.30;;;15.90;99.90;;;;;;5108895;28;20375;-73
2023/10/12 13:38:03;;;;;;;0.20;0.20;;;15.90;99.90;;;;;;5109740;28;20506;-73
2023/10/12 13:40:32;;;;;;;0.20;0.20;;;15.90;99.90;;;;;;5108636;27;20039;-73
2023/10/12 13:43:06;;;;;;;0.20;0.20;;;15.90;99.90;;;;;;5110973;27;20062;-75
2023/10/12 13:45:32;;;;;;;0.20;0.20;;;15.90;99.90;;;;;;5109395;27;20047;-72
2023/10/12 13:47:58;;;;;;;0.20;0.20;;;15.90;99.90;;;;;;5102184;28;20137;-73
2023/10/12 13:50:24;;;;;;;0.20;0.20;;;15.80;99.90;;;;;;5109445;28;20032;-75
2023/10/12 13:52:49;;;;;;;;;;;15.80;99.90;;;;;;5110861;28;20070;-74
2023/10/12 13:55:15;;;;;;;0.20;0.20;;;15.80;99.90;;;;;;5109506;27;19920;-74
2023/10/12 13:57:50;;;;;;;;;;;15.70;99.90;;;;;;5114717;27;20054;-74
2023/10/12 14:00:22;;;;;;;0.20;0.20;;;15.70;99.90;;;;;;5106533;28;20411;-73
2023/10/12 14:02:49;;;;;;;0.20;0.20;;;15.60;99.90;;;;;;5108158;28;20047;-73
2023/10/12 14:05:24;;;;;;;0.10;0.10;;;15.50;99.90;;;;;;5111153;27;20514;-74
2023/10/12 14:07:53;;;;;;;0.20;0.20;;;15.40;99.90;;;;;;5109659;28;20040;-74
2023/10/12 14:10:23;;;;;;;0.20;0.20;;;15.40;99.90;;;;;;5109269;27;21830;-74
2023/10/12 14:12:55;;;;;;;0.30;0.30;;;15.30;99.90;;;;;;5106609;28;20047;-73
2023/10/12 14:15:24;;;;;;;0.28;0.28;;;15.40;99.90;;;;;;5107758;28;20062;-73
2023/10/12 14:17:54;;;;;;;0.20;0.20;;;15.40;99.90;;;;;;5106930;28;20059;-74
2023/10/12 14:20:26;;;;;;;0.20;0.20;;;15.40;99.90;;;;;;5109594;28;20557;-74
2023/10/12 14:22:57;;;;;;;0.20;0.20;;;15.50;99.90;;;;;;5107545;28;20178;-74
2023/10/12 14:25:30;;;;;;;0.20;0.20;;;15.50;99.90;;;;;;5086791;28;20440;-73
2023/10/12 14:27:59;;;;;;;0.30;0.30;;;15.40;99.90;;;;;;5106135;27;20051;-74
2023/10/12 14:30:28;;;;;;;0.20;0.20;;;15.40;99.90;;;;;;5108249;28;20043;-74
2023/10/12 14:33:02;;;;;;;0.15;0.15;;;15.30;99.90;;;;;;5106182;28;20046;-73
2023/10/12 14:35:28;;;;;;;0.20;0.20;;;15.20;99.90;;;;;;5107640;27;20088;-74
2023/10/12 14:37:57;;;;;;;0.20;0.20;;;15.20;99.90;;;;;;5106358;28;20052;-75
2023/10/12 14:40:31;;;;;;;0.20;0.20;;;15.10;99.90;;;;;;5074801;28;20039;-74
2023/10/12 14:43:23;;;;;;;0.60;0.60;;;15.10;99.90;;;;;;5106595;27;20128;-73
2023/10/12 14:45:55;;;;;;;0.30;0.30;;;15.00;99.90;;;;;;5105490;28;20163;-74
2023/10/12 14:48:22;;;;;;;0.50;0.50;;;14.80;99.90;;;;;;5104699;28;20054;-74
2023/10/12 14:50:56;;;;;;;0.30;0.30;;;14.60;99.90;;;;;;5108417;28;20036;-74
2023/10/12 14:53:27;;;;;;;0.30;0.30;;;14.50;99.90;;;;;;5117361;27;20101;-73
2023/10/12 14:55:54;;;;;;;0.30;0.30;;;14.40;99.90;;;;;;5106823;28;20619;-73
2023/10/12 14:58:21;;;;;;;0.30;0.30;;;14.80;99.90;;;;;;5107584;27;20132;-74
2023/10/12 15:00:47;;;;;;;0.20;0.20;;;14.20;99.90;;;;;;5105966;28;20047;-74
2023/10/12 15:03:21;;;;;;;0.40;0.40;;;14.10;99.90;;;;;;5106789;28;20520;-73
2023/10/12 15:05:53;;;;;;;0.20;0.20;;;14.10;99.90;;;;;;5107487;28;20051;-74
2023/10/12 15:08:23;;;;;;;0.15;0.15;;;14.00;99.90;;;;;;5106710;28;20066;-74
2023/10/12 15:10:49;;;;;;;0.30;0.30;;;14.00;99.90;;;;;;5107285;28;20039;-74
2023/10/12 15:13:16;;;;;;;0.38;0.38;;;13.90;99.90;;;;;;5107358;28;20052;-73
2023/10/12 15:15:47;;;;;;;0.30;0.30;;;13.80;99.90;;;;;;5106111;28;20501;-73